createdAt,value
2019-03-25T00:01:50.505Z,101952.80
2019-03-25T00:04:19.891Z,101945.37
2019-03-25T00:06:49.291Z,101941.16
2019-03-25T00:09:18.682Z,101931.48
2019-03-25T00:11:48.073Z,101929.55
2019-03-25T00:14:17.483Z,101933.16
2019-03-25T00:16:46.877Z,101925.14
2019-03-25T00:19:16.265Z,101920.58
2019-03-25T00:21:45.678Z,101925.28
2019-03-25T00:24:15.078Z,101909.98
2019-03-25T00:26:44.457Z,101910.57
2019-03-25T00:29:13.869Z,101912.78
2019-03-25T00:31:43.270Z,101913.81
2019-03-25T00:34:12.660Z,101905.75
2019-03-25T00:36:42.069Z,101903.53
2019-03-25T00:39:11.459Z,101905.73
2019-03-25T00:41:41.107Z,101901.38
2019-03-25T00:44:10.511Z,101897.91
2019-03-25T00:46:39.924Z,101904.61
2019-03-25T00:49:09.318Z,101890.06
2019-03-25T00:51:38.744Z,101889.05
2019-03-25T00:54:08.145Z,101874.50
2019-03-25T00:56:37.611Z,101865.92
2019-03-25T00:59:07.013Z,101865.22
2019-03-25T01:01:36.414Z,101872.22
2019-03-25T01:04:05.873Z,101882.56
2019-03-25T01:06:35.312Z,101910.00
2019-03-25T01:09:06.249Z,101914.95
2019-03-25T01:11:35.627Z,101926.48
2019-03-25T01:14:05.069Z,101930.56
2019-03-25T01:16:34.442Z,101941.91
2019-03-25T01:19:03.832Z,101946.78
2019-03-25T01:21:33.239Z,101944.73
2019-03-25T01:24:02.632Z,101955.86
2019-03-25T01:26:32.037Z,101949.61
2019-03-25T01:29:01.440Z,101949.50
2019-03-25T01:31:30.842Z,101950.98
2019-03-25T01:34:00.256Z,101957.47
2019-03-25T01:36:29.679Z,101954.92
2019-03-25T01:38:59.094Z,101964.64
2019-03-25T01:41:28.490Z,101966.43
2019-03-25T01:43:57.927Z,101975.25
2019-03-25T01:46:27.564Z,101979.44
2019-03-25T01:48:56.964Z,101980.99
2019-03-25T01:51:26.371Z,101988.41
2019-03-25T01:53:55.764Z,101989.55
2019-03-25T01:56:25.154Z,101988.95
2019-03-25T01:58:54.586Z,101976.98
2019-03-25T02:01:23.951Z,101969.06
2019-03-25T02:03:53.346Z,101970.20
2019-03-25T02:06:22.743Z,101951.76
2019-03-25T02:08:52.129Z,101940.89
2019-03-25T02:11:22.431Z,101922.34
2019-03-25T02:13:52.015Z,101912.60
2019-03-25T02:16:21.410Z,101897.64
2019-03-25T02:18:50.799Z,101898.78
2019-03-25T02:21:20.215Z,101897.42
2019-03-25T02:23:49.617Z,101891.05
2019-03-25T02:26:19.003Z,101887.36
2019-03-25T02:28:48.451Z,101886.33
2019-03-25T02:31:17.847Z,101884.17
2019-03-25T02:33:47.256Z,101882.30
2019-03-25T02:36:16.636Z,101876.19
2019-03-25T02:38:46.035Z,101881.34
2019-03-25T02:41:18.541Z,101880.11
2019-03-25T02:43:46.567Z,101874.59
2019-03-25T02:46:15.968Z,101866.85
2019-03-25T02:48:45.372Z,101865.23
2019-03-25T02:51:15.036Z,101862.36
2019-03-25T02:53:44.435Z,101866.53
2019-03-25T02:56:13.829Z,101869.91
2019-03-25T02:58:43.235Z,101864.42
2019-03-25T03:01:12.712Z,101859.48
2019-03-25T03:03:42.352Z,101863.27
2019-03-25T03:06:11.785Z,101871.66
2019-03-25T03:08:41.143Z,101866.89
2019-03-25T03:11:10.540Z,101866.39
2019-03-25T03:13:39.949Z,101862.98
2019-03-25T03:16:09.349Z,101861.09
2019-03-25T03:18:38.737Z,101854.84
2019-03-25T03:21:08.175Z,101855.84
2019-03-25T03:23:37.538Z,101852.12
2019-03-25T03:26:06.935Z,101854.35
2019-03-25T03:28:36.353Z,101854.73
2019-03-25T03:31:05.742Z,101853.81
2019-03-25T03:33:35.137Z,101856.34
2019-03-25T03:36:04.624Z,101852.48
2019-03-25T03:38:33.997Z,101847.66
2019-03-25T03:41:03.475Z,101842.84
2019-03-25T03:43:32.879Z,101841.26
2019-03-25T03:46:02.268Z,101838.34
2019-03-25T03:48:31.670Z,101841.20
2019-03-25T03:51:01.742Z,101844.34
2019-03-25T03:53:31.199Z,101839.92
2019-03-25T03:56:12.844Z,101833.70
2019-03-25T03:58:35.168Z,101834.59
2019-03-25T04:01:04.630Z,101828.71
2019-03-25T04:03:34.030Z,101827.55
2019-03-25T04:06:03.441Z,101825.02
2019-03-25T04:08:32.833Z,101823.09
2019-03-25T04:11:02.230Z,101827.18
2019-03-25T04:13:31.744Z,101821.30
2019-03-25T04:16:01.834Z,101821.84
2019-03-25T04:18:31.273Z,101828.09
2019-03-25T04:21:00.667Z,101830.14
2019-03-25T04:23:30.067Z,101834.85
2019-03-25T04:25:59.701Z,101830.13
2019-03-25T04:28:29.108Z,101820.06
2019-03-25T04:30:58.503Z,101834.80
2019-03-25T04:33:28.183Z,101827.72
2019-03-25T04:35:57.880Z,101828.36
2019-03-25T04:38:27.309Z,101826.73
2019-03-25T04:41:07.515Z,101823.50
2019-03-25T04:43:55.624Z,101822.12
2019-03-25T04:46:25.006Z,101819.08
2019-03-25T04:48:54.452Z,101818.91
2019-03-25T04:51:23.892Z,101824.09
2019-03-25T04:53:53.367Z,101818.21
2019-03-25T04:56:22.757Z,101810.85
2019-03-25T04:58:52.186Z,101805.56
2019-03-25T05:01:22.183Z,101808.71
2019-03-25T05:03:51.581Z,101803.86
2019-03-25T05:18:55.208Z,101796.68
2019-03-25T05:25:09.245Z,101794.41
2019-03-25T05:27:38.649Z,101794.47
2019-03-25T05:33:37.781Z,101797.33
2019-03-25T05:37:01.382Z,101796.20
2019-03-25T05:42:28.125Z,101785.31
2019-03-25T05:45:02.136Z,101791.09
2019-03-25T05:47:31.897Z,101783.34
2019-03-25T05:50:01.346Z,101779.17
2019-03-25T05:52:30.789Z,101776.81
2019-03-25T05:55:00.421Z,101776.31
2019-03-25T05:57:29.873Z,101766.92
2019-03-25T05:59:59.303Z,101771.30
2019-03-25T06:02:28.775Z,101774.47
2019-03-25T06:05:00.110Z,101763.73
2019-03-25T06:07:29.785Z,101799.95
2019-03-25T06:09:59.154Z,101824.41
2019-03-25T06:12:28.600Z,101818.69
2019-03-25T06:14:57.974Z,101811.61
2019-03-25T06:21:11.936Z,101818.22
2019-03-25T06:30:56.276Z,101801.09
2019-03-25T06:33:25.959Z,101792.11
2019-03-25T06:46:10.795Z,101816.62
2019-03-25T06:58:49.846Z,101807.84
2019-03-25T07:04:57.827Z,101814.28
2019-03-25T07:18:45.385Z,101816.75
2019-03-25T07:27:53.543Z,101828.98
2019-03-25T07:30:22.973Z,101837.27
2019-03-25T07:32:52.307Z,101840.08
2019-03-25T07:35:22.528Z,101841.09
2019-03-25T07:38:25.075Z,101846.21
2019-03-25T07:50:44.753Z,101883.14
2019-03-25T07:53:14.153Z,101881.83
2019-03-25T07:55:43.582Z,101884.05
2019-03-25T07:58:12.980Z,101888.09
2019-03-25T08:00:42.449Z,101893.08
2019-03-25T08:03:11.886Z,101896.23
2019-03-25T08:05:41.281Z,101901.07
2019-03-25T08:08:10.731Z,101903.97
2019-03-25T08:10:40.136Z,101912.91
2019-03-25T08:13:09.616Z,101931.91
2019-03-25T08:15:39.028Z,101932.78
2019-03-25T08:18:08.428Z,101937.97
2019-03-25T08:20:37.869Z,101946.28
2019-03-25T08:23:07.330Z,101957.01
2019-03-25T08:25:36.750Z,101966.30
2019-03-25T08:28:06.427Z,101961.53
2019-03-25T08:30:35.088Z,101969.07
2019-03-25T08:33:04.488Z,101972.41
2019-03-25T08:35:33.863Z,101974.27
2019-03-25T08:38:03.397Z,101975.04
2019-03-25T08:40:32.796Z,101979.30
2019-03-25T08:43:02.269Z,101988.25
2019-03-25T08:45:31.878Z,101987.65
2019-03-25T08:48:01.336Z,101998.50
2019-03-25T08:50:30.849Z,101996.46
2019-03-25T08:53:00.260Z,101998.61
2019-03-25T08:55:29.723Z,101989.75
2019-03-25T08:57:59.111Z,101996.69
2019-03-25T09:00:28.522Z,102001.06
2019-03-25T09:02:57.926Z,102008.20
2019-03-25T09:05:27.363Z,102019.27
2019-03-25T09:07:56.988Z,102031.79
2019-03-25T09:10:26.526Z,102040.77
2019-03-25T09:48:45.188Z,102112.58
2019-03-25T10:01:01.530Z,102115.86
2019-03-25T10:08:20.031Z,102124.66
2019-03-25T10:17:27.671Z,102134.50
2019-03-25T10:24:16.143Z,102132.47
2019-03-25T10:40:47.787Z,102133.16
2019-03-25T10:41:15.156Z,102133.94
2019-03-25T10:44:04.671Z,102122.34
2019-03-25T10:59:51.309Z,102155.68
2019-03-25T11:02:35.845Z,102145.53
2019-03-25T11:05:09.448Z,102147.19
2019-03-25T11:07:39.039Z,102152.77
2019-03-25T11:10:09.402Z,102154.06
2019-03-25T11:12:39.638Z,102167.17
2019-03-25T11:19:50.650Z,102174.16
2019-03-25T11:28:56.246Z,102176.16
2019-03-25T11:31:45.772Z,102175.60
2019-03-25T11:38:15.948Z,102167.75
2019-03-25T11:47:31.991Z,102170.28
2019-03-25T12:06:09.791Z,102189.74
2019-03-25T12:08:39.279Z,102189.80
2019-03-25T12:11:08.782Z,102192.98
2019-03-25T12:13:38.173Z,102191.16
2019-03-25T13:00:37.574Z,102183.31
2019-03-25T13:04:03.562Z,102191.18
2019-03-25T13:13:12.112Z,102198.12
2019-03-25T13:24:59.899Z,102215.75
2019-03-25T13:34:34.128Z,102231.53
2019-03-25T13:37:03.534Z,102239.56
2019-03-25T13:42:41.637Z,102245.05
2019-03-25T13:45:11.491Z,102246.83
2019-03-25T13:47:40.988Z,102257.05
2019-03-25T14:10:55.765Z,102308.61
2019-03-25T14:13:26.733Z,102305.86
2019-03-25T14:15:56.150Z,102308.94
2019-03-25T14:18:25.663Z,102312.30
2019-03-25T14:20:55.098Z,102320.70
2019-03-25T14:23:24.503Z,102327.56
2019-03-25T14:25:53.912Z,102333.23
2019-03-25T14:28:23.333Z,102330.59
2019-03-25T14:34:50.240Z,102338.80
2019-03-25T14:37:19.847Z,102343.16
2019-03-25T14:39:49.318Z,102354.28
2019-03-25T14:42:18.713Z,102355.25
2019-03-25T14:44:48.148Z,102353.62
2019-03-25T14:47:17.665Z,102366.77
2019-03-25T14:49:47.090Z,102377.44
2019-03-25T14:52:16.483Z,102377.78
2019-03-25T15:11:42.976Z,102418.94
2019-03-25T15:14:12.396Z,102416.69
2019-03-25T15:16:45.837Z,102422.81
2019-03-25T16:00:47.592Z,102490.45
2019-03-25T16:09:58.118Z,102506.78
2019-03-25T16:24:54.382Z,102534.68
2019-03-25T16:28:05.724Z,102543.78
2019-03-25T16:31:12.203Z,102544.72
2019-03-25T16:40:54.792Z,102565.80
2019-03-25T16:47:05.568Z,102572.78
2019-03-25T16:56:34.817Z,102581.34
2019-03-25T16:59:34.050Z,102583.02
2019-03-25T17:11:58.931Z,102600.34
2019-03-25T17:15:21.477Z,102609.02
2019-03-25T17:28:20.804Z,102634.72
2019-03-25T17:33:15.235Z,102643.84
2019-03-25T17:42:31.479Z,102661.53
2019-03-25T17:45:34.556Z,102653.17
2019-03-25T17:58:50.948Z,102688.02
2019-03-25T18:04:58.764Z,102698.59
2019-03-25T18:07:58.344Z,102704.42
2019-03-25T18:11:05.603Z,102705.28
2019-03-25T18:17:01.384Z,102713.32
2019-03-25T18:19:42.257Z,102721.58
2019-03-25T18:22:41.051Z,102730.67
2019-03-25T18:26:09.996Z,102738.84
2019-03-25T18:36:00.569Z,102763.42
2019-03-25T18:38:51.369Z,102764.35
2019-03-25T18:51:42.946Z,102792.50
2019-03-25T18:54:00.000Z,102800.17
2019-03-25T18:56:29.452Z,102803.95
2019-03-25T18:58:58.851Z,102802.63
2019-03-25T19:01:28.386Z,102808.80
2019-03-25T19:03:58.157Z,102803.88
2019-03-25T19:06:26.788Z,102811.52
2019-03-25T19:08:56.709Z,102803.81
2019-03-25T19:11:50.425Z,102804.84
2019-03-25T19:14:48.079Z,102812.55
2019-03-25T19:17:17.870Z,102818.52
2019-03-25T19:33:27.841Z,102836.79
2019-03-25T19:37:12.030Z,102846.45
2019-03-25T19:40:44.330Z,102846.65
2019-03-25T20:36:28.217Z,102944.05
2019-03-25T20:38:57.685Z,102948.38
2019-03-25T20:41:29.553Z,102954.67
2019-03-25T20:44:04.807Z,102958.27
2019-03-25T20:46:34.346Z,102962.07
2019-03-25T20:49:03.763Z,102965.14
2019-03-25T20:51:33.258Z,102970.23
2019-03-25T20:54:02.646Z,102981.95
2019-03-25T20:56:32.243Z,102981.19
2019-03-25T20:59:01.670Z,102980.37
2019-03-25T21:01:31.083Z,102985.40
2019-03-25T21:04:00.610Z,102985.03
2019-03-25T21:06:29.963Z,102981.42
2019-03-25T21:08:59.486Z,102976.06
2019-03-25T21:11:28.846Z,102973.62
2019-03-25T21:13:58.246Z,102979.03
2019-03-25T21:16:27.698Z,102979.84
2019-03-25T21:18:57.162Z,102980.33
2019-03-25T21:21:26.827Z,102980.37
2019-03-25T21:23:56.217Z,102986.45
2019-03-25T21:26:25.890Z,102983.80
2019-03-25T21:28:55.296Z,102986.42
2019-03-25T21:31:25.039Z,102992.25
2019-03-25T21:33:54.425Z,102995.80
2019-03-25T21:36:23.934Z,102994.25
2019-03-25T21:38:53.336Z,102985.63
2019-03-25T21:41:22.735Z,102989.02
2019-03-25T21:43:52.149Z,102990.67
2019-03-25T21:46:21.789Z,102994.71
2019-03-25T21:48:51.124Z,103002.16
2019-03-25T21:51:20.691Z,103006.52
2019-03-25T21:53:53.050Z,103002.13
2019-03-25T21:56:21.221Z,103004.65
2019-03-25T21:58:50.631Z,103006.81
2019-03-25T22:01:20.024Z,103008.33
2019-03-25T22:03:49.428Z,103005.59
2019-03-25T22:06:18.847Z,103006.88
2019-03-25T22:08:48.276Z,103013.53
2019-03-25T22:11:17.661Z,103012.31
2019-03-25T22:13:47.058Z,103011.11
2019-03-25T22:16:16.479Z,103010.92
2019-03-25T22:18:45.856Z,103013.86
2019-03-25T22:21:15.246Z,103011.44
2019-03-25T22:23:44.660Z,103012.41
2019-03-25T22:26:14.044Z,103010.30
2019-03-25T22:28:43.430Z,103003.84
2019-03-25T22:31:12.848Z,103001.45
2019-03-25T22:33:42.232Z,103004.08
2019-03-25T22:36:11.620Z,103011.21
2019-03-25T22:38:41.036Z,103015.69
2019-03-25T22:41:10.466Z,103017.61
2019-03-25T22:43:39.837Z,103016.27
2019-03-25T22:46:09.243Z,103017.84
2019-03-25T22:48:38.675Z,103014.09
2019-03-25T22:51:08.075Z,103016.45
2019-03-25T22:53:37.452Z,103014.33
2019-03-25T22:56:06.844Z,103016.17
2019-03-25T22:58:36.240Z,103017.73
2019-03-25T23:01:05.973Z,103022.49
2019-03-25T23:03:39.321Z,103024.08
2019-03-25T23:06:05.701Z,103025.87
2019-03-25T23:08:35.101Z,103024.16
2019-03-25T23:11:04.560Z,103031.41
2019-03-25T23:13:33.965Z,103034.58
2019-03-25T23:16:03.644Z,103038.95
2019-03-25T23:18:33.027Z,103038.69
2019-03-25T23:21:02.487Z,103038.27
2019-03-25T23:23:31.902Z,103036.59
2019-03-25T23:26:01.335Z,103037.33
2019-03-25T23:28:30.712Z,103039.36
2019-03-25T23:31:00.182Z,103040.36
2019-03-25T23:33:29.573Z,103041.69
2019-03-25T23:35:59.191Z,103046.61
2019-03-25T23:38:28.694Z,103045.11
2019-03-25T23:40:58.074Z,103046.38
2019-03-25T23:43:27.596Z,103049.44
2019-03-25T23:46:06.097Z,103049.44
2019-03-25T23:48:35.517Z,103051.09
2019-03-25T23:51:04.922Z,103058.45
2019-03-25T23:53:34.592Z,103046.41
2019-03-25T23:56:04.080Z,103050.58
2019-03-25T23:58:33.548Z,103046.61
